createdAt,value
2018-12-24T00:05:59.593Z,5.10
2018-12-24T00:12:07.514Z,3.98
2018-12-24T00:18:13.417Z,5.25
2018-12-24T00:24:18.121Z,3.95
2018-12-24T00:30:22.785Z,3.77
2018-12-24T00:36:27.533Z,4.78
2018-12-24T00:42:32.223Z,4.45
2018-12-24T00:48:36.945Z,2.70
2018-12-24T00:54:41.678Z,2.58
2018-12-24T01:00:46.327Z,3.55
2018-12-24T01:06:51.121Z,5.95
2018-12-24T01:12:55.851Z,4.20
2018-12-24T01:19:00.631Z,2.25
2018-12-24T01:25:05.371Z,2.52
2018-12-24T01:31:11.875Z,2.60
2018-12-24T01:37:16.790Z,2.70
2018-12-24T01:43:21.576Z,4.08
2018-12-24T01:49:26.390Z,3.70
2018-12-24T01:55:31.202Z,6.72
2018-12-24T02:01:35.930Z,7.37
2018-12-24T02:07:40.608Z,8.75
2018-12-24T02:13:45.291Z,6.58
2018-12-24T02:19:49.972Z,8.30
2018-12-24T02:25:54.979Z,7.08
2018-12-24T02:31:59.833Z,7.35
2018-12-24T02:38:04.592Z,5.50
2018-12-24T02:44:09.468Z,4.87
2018-12-24T02:50:14.217Z,4.92
2018-12-24T02:56:18.877Z,4.83
2018-12-24T03:02:23.580Z,3.58
2018-12-24T03:08:28.299Z,3.52
2018-12-24T03:14:33.223Z,4.97
2018-12-24T03:20:37.950Z,3.27
2018-12-24T03:26:45.484Z,3.27
2018-12-24T03:32:50.200Z,4.65
2018-12-24T03:38:55.408Z,4.95
2018-12-24T03:45:00.252Z,5.53
2018-12-24T03:51:05.029Z,3.70
2018-12-24T03:57:09.730Z,5.25
2018-12-24T04:03:14.369Z,3.20
2018-12-24T04:09:19.085Z,5.37
2018-12-24T04:15:23.692Z,3.72
2018-12-24T04:21:28.477Z,4.08
2018-12-24T04:27:41.346Z,4.97
2018-12-24T04:33:39.598Z,5.45
2018-12-24T04:39:44.398Z,8.15
2018-12-24T04:45:49.167Z,6.10
2018-12-24T04:51:54.038Z,5.67
2018-12-24T04:57:58.895Z,4.90
2018-12-24T05:04:03.592Z,6.35
2018-12-24T05:10:08.249Z,4.05
2018-12-24T05:16:13.038Z,6.03
2018-12-24T05:22:17.746Z,5.28
2018-12-24T05:28:22.500Z,2.83
2018-12-24T05:34:27.220Z,4.15
2018-12-24T05:40:31.868Z,4.95
2018-12-24T05:46:36.539Z,5.20
2018-12-24T05:52:41.276Z,6.03
2018-12-24T05:58:46.068Z,8.00
2018-12-24T06:04:53.835Z,6.15
2018-12-24T06:11:01.418Z,4.78
2018-12-24T06:17:07.461Z,8.10
2018-12-24T06:23:15.931Z,9.70
2018-12-24T06:29:22.769Z,13.15
2018-12-24T06:35:27.574Z,5.40
2018-12-24T06:41:32.348Z,4.85
2018-12-24T06:47:37.110Z,3.10
2018-12-24T06:53:41.740Z,3.85
2018-12-24T06:59:46.444Z,5.57
2018-12-24T07:05:51.086Z,4.92
2018-12-24T07:11:55.762Z,4.15
2018-12-24T07:18:01.328Z,7.50
2018-12-24T07:24:06.026Z,4.28
2018-12-24T07:30:10.758Z,6.05
2018-12-24T07:36:15.486Z,5.23
2018-12-24T07:42:20.180Z,5.30
2018-12-24T07:48:25.068Z,5.20
2018-12-24T07:54:29.887Z,8.17
2018-12-24T08:00:34.669Z,9.37
2018-12-24T08:06:39.334Z,8.40
2018-12-24T08:12:44.135Z,8.80
2018-12-24T08:18:48.883Z,6.83
2018-12-24T08:24:53.571Z,6.77
2018-12-24T08:30:58.420Z,5.63
2018-12-24T08:37:03.153Z,6.80
2018-12-24T08:43:07.845Z,7.12
2018-12-24T08:49:12.478Z,6.23
2018-12-24T08:55:17.200Z,7.78
2018-12-24T09:01:22.049Z,7.15
2018-12-24T09:07:26.751Z,6.95
2018-12-24T09:13:31.545Z,6.70
2018-12-24T09:19:36.159Z,5.72
2018-12-24T09:25:40.825Z,10.15
2018-12-24T09:31:45.495Z,7.03
2018-12-24T09:37:50.160Z,5.28
2018-12-24T09:43:54.898Z,5.25
2018-12-24T09:49:59.742Z,9.80
2018-12-24T09:56:04.365Z,8.65
2018-12-24T10:02:09.147Z,7.95
2018-12-24T10:08:17.089Z,6.45
2018-12-24T10:14:21.710Z,8.73
2018-12-24T10:20:26.385Z,7.62
2018-12-24T10:26:30.989Z,7.30
2018-12-24T10:32:35.681Z,6.72
2018-12-24T10:38:40.342Z,4.85
2018-12-24T10:44:45.051Z,6.70
2018-12-24T10:50:49.874Z,5.62
2018-12-24T10:56:54.675Z,5.12
2018-12-24T11:02:59.397Z,4.17
2018-12-24T11:09:04.939Z,5.15
2018-12-24T11:15:11.502Z,4.42
2018-12-24T11:21:16.085Z,4.60
2018-12-24T11:27:20.721Z,3.47
2018-12-24T11:33:25.324Z,2.55
2018-12-24T11:39:30.006Z,5.10
2018-12-24T11:45:36.038Z,3.30
2018-12-24T11:51:40.886Z,2.08
2018-12-24T11:57:47.351Z,4.10
2018-12-24T12:03:51.912Z,3.95
2018-12-24T12:09:56.652Z,4.47
2018-12-24T12:16:01.298Z,2.25
2018-12-24T12:22:06.060Z,2.50
2018-12-24T12:28:10.776Z,1.07
2018-12-24T12:34:15.404Z,3.67
2018-12-24T12:40:20.058Z,2.58
2018-12-24T12:46:24.780Z,1.85
2018-12-24T12:52:29.396Z,3.52
2018-12-24T12:58:34.035Z,2.92
2018-12-24T13:04:38.673Z,2.37
2018-12-24T13:10:43.459Z,3.27
2018-12-24T13:16:48.125Z,4.92
2018-12-24T13:22:53.028Z,1.22
2018-12-24T13:28:57.771Z,1.92
2018-12-24T13:35:02.488Z,1.37
2018-12-24T13:41:07.254Z,0.30
2018-12-24T13:47:14.663Z,2.33
2018-12-24T13:53:19.300Z,2.40
2018-12-24T14:00:02.252Z,1.60
2018-12-24T14:06:06.571Z,2.25
2018-12-24T14:12:10.916Z,2.60
2018-12-24T14:18:15.097Z,1.05
2018-12-24T14:24:19.316Z,3.85
2018-12-24T14:30:23.607Z,1.85
2018-12-24T14:36:27.875Z,4.95
2018-12-24T14:42:32.098Z,13.10
2018-12-24T14:48:36.447Z,4.47
2018-12-24T14:54:40.740Z,1.70
2018-12-24T15:00:45.034Z,5.08
2018-12-24T15:06:49.843Z,4.28
2018-12-24T15:12:54.029Z,1.98
2018-12-24T15:18:58.274Z,2.58
2018-12-24T15:25:02.547Z,2.75
2018-12-24T15:31:06.869Z,2.62
2018-12-24T15:37:11.058Z,3.10
2018-12-24T15:43:15.350Z,2.87
2018-12-24T15:49:19.585Z,2.80
2018-12-24T15:55:23.928Z,6.22
2018-12-24T16:01:28.137Z,8.63
2018-12-24T16:07:32.469Z,12.53
2018-12-24T16:13:36.688Z,11.53
2018-12-24T16:19:42.118Z,5.03
2018-12-24T16:25:46.428Z,3.55
2018-12-24T16:31:50.632Z,4.83
2018-12-24T16:37:54.836Z,3.33
2018-12-24T16:44:00.338Z,6.60
2018-12-24T16:50:04.821Z,9.65
2018-12-24T16:56:09.079Z,18.65
2018-12-24T17:02:13.426Z,20.85
2018-12-24T17:08:17.610Z,9.43
2018-12-24T17:14:21.855Z,15.48
2018-12-24T17:20:26.045Z,16.25
2018-12-24T17:26:30.611Z,12.20
2018-12-24T17:32:34.809Z,13.65
2018-12-24T17:38:39.100Z,16.10
2018-12-24T17:44:43.299Z,35.30
2018-12-24T17:50:47.739Z,16.82
2018-12-24T17:56:51.961Z,18.85
2018-12-24T18:02:56.245Z,15.98
2018-12-24T18:09:00.454Z,13.43
2018-12-24T18:15:04.894Z,15.68
2018-12-24T18:21:09.116Z,13.58
2018-12-24T18:27:13.311Z,11.30
2018-12-24T18:33:17.521Z,22.02
2018-12-24T18:39:21.862Z,16.97
2018-12-24T18:45:26.072Z,9.58
2018-12-24T18:51:30.396Z,9.10
2018-12-24T18:57:34.638Z,13.18
2018-12-24T19:03:38.955Z,13.15
2018-12-24T19:09:43.255Z,15.10
2018-12-24T19:15:47.586Z,23.67
2018-12-24T19:21:51.955Z,13.38
2018-12-24T19:27:56.213Z,21.48
2018-12-24T19:34:00.453Z,17.52
2018-12-24T19:40:04.694Z,17.25
2018-12-24T19:46:09.035Z,19.77
2018-12-24T19:52:13.271Z,24.75
2018-12-24T19:58:17.447Z,27.30
2018-12-24T20:04:21.755Z,25.17
2018-12-24T20:10:25.965Z,18.52
2018-12-24T20:16:30.243Z,24.52
2018-12-24T20:22:34.557Z,20.10
2018-12-24T20:28:38.895Z,19.82
2018-12-24T20:34:43.106Z,23.10
2018-12-24T20:40:47.371Z,21.82
2018-12-24T20:46:51.566Z,19.37
2018-12-24T20:52:56.082Z,22.77
2018-12-24T20:59:00.315Z,25.23
2018-12-24T21:05:04.807Z,22.35
2018-12-24T21:11:09.215Z,25.30
2018-12-24T21:17:13.407Z,27.58
2018-12-24T21:23:17.629Z,24.15
2018-12-24T21:29:21.847Z,24.75
2018-12-24T21:35:26.115Z,24.65
2018-12-24T21:41:30.315Z,30.43
2018-12-24T21:47:34.508Z,31.85
2018-12-24T21:53:38.853Z,32.03
2018-12-24T21:59:43.047Z,31.15
2018-12-24T22:05:47.368Z,33.10
2018-12-24T22:11:51.595Z,41.55
2018-12-24T22:17:55.856Z,34.13
2018-12-24T22:24:00.143Z,33.47
2018-12-24T22:30:04.545Z,29.80
2018-12-24T22:36:09.076Z,30.33
2018-12-24T22:42:13.780Z,32.53
2018-12-24T22:48:17.950Z,28.83
2018-12-24T22:54:22.536Z,27.27
2018-12-24T23:01:00.866Z,29.50
2018-12-24T23:07:05.478Z,31.37
2018-12-24T23:13:09.978Z,30.80
2018-12-24T23:19:14.290Z,27.07
2018-12-24T23:25:20.354Z,27.60
2018-12-24T23:31:24.653Z,28.37
2018-12-24T23:37:28.922Z,28.87
2018-12-24T23:43:33.214Z,27.27
2018-12-24T23:49:37.476Z,28.17
2018-12-24T23:55:41.722Z,24.17
